Aviation Digital Data Service (ADDS)

Output produced by METARs form (0910 UTC 02 September 2014)
found at http://www.aviationweather.gov/adds/metars/
 
KDUJ 020853Z AUTO 24006KT 8SM BKN011 BKN014 OVC020 21/21 A2996 RMK AO2 CIG 007V012 SLP132 60003 T02110206 58003
KDUJ 020753Z AUTO 23008KT 9SM OVC010 21/21 A2997 RMK AO2 SLP133 T02110206
KDUJ 020653Z AUTO 23009KT 9SM BKN010 BKN014 OVC020 21/21 A2997 RMK AO2 RAB04E38 CIG 007V012 SLP135 P0003 T02110206
KDUJ 020553Z AUTO 23009KT 10SM BKN014 22/20 A2997 RMK AO2 SLP135 T02170200 10228 20217 57006
KDUJ 020517Z AUTO 23009KT 10SM BKN015 BKN036 OVC050 22/20 A2998 RMK AO2 T02220200
KDUJ 020453Z AUTO 22007KT 10SM SCT037 SCT055 22/20 A2998 RMK AO2 SLP138 T02170200 402610200
KDUJ 020353Z AUTO 21008KT 10SM BKN045 OVC055 22/20 A2999 RMK AO2 SLP141 T02220200
KDUJ 020253Z AUTO 21004KT 10SM FEW027 SCT033 BKN049 22/21 A2999 RMK AO2 SLP142 T02220206 51005
KDUJ 020153Z AUTO 21003KT 9SM FEW044 22/20 A2999 RMK AO2 SLP142 T02170200
KDUJ 020053Z AUTO 21006KT 10SM SCT050 22/20 A2998 RMK AO2 SLP140 T02170200
KDUJ 012353Z AUTO 22006KT 10SM SCT041 SCT070 23/20 A2998 RMK AO2 SLP138 T02280200 10261 20228 53001
KDUJ 012253Z AUTO 21007KT 10SM FEW031 BKN080 24/21 A2997 RMK AO2 SLP135 T02440206
KDUJ 012153Z AUTO 22006KT 10SM FEW029 SCT038 OVC090 24/20 A2997 RMK AO2 SLP136 T02440200
KDUJ 012053Z AUTO 23010KT 10SM FEW025 SCT029 26/21 A2997 RMK AO2 SLP136 T02560206 56015
KDUJ 011953Z AUTO 21009KT 10SM SCT025 SCT029 BKN036 25/20 A2998 RMK AO2 SLP139 T02500200
KDUJ 011853Z AUTO 23009KT 10SM FEW020 SCT026 BKN035 25/21 A3001 RMK AO2 SLP147 T02500206
KDUJ 011826Z AUTO 21006KT 10SM FEW016 SCT022 24/21 A3001 RMK AO2 T02440211
KDUJ 011810Z AUTO 21007KT 10SM FEW011 BKN017 BKN039 24/21 A3002 RMK AO2 T02390211
KDUJ 011753Z AUTO 21006KT 10SM BKN013 BKN029 OVC060 23/21 A3002 RMK AO2 RAE06 SLP153 P0001 60005 T02330211 10233 20200 58007
KDUJ 011713Z AUTO 00000KT 8SM FEW007 BKN016 OVC033 23/21 A3003 RMK AO2 RAE06 P0001 T02280211
KDUJ 011706Z AUTO 21003KT 5SM BR SCT009 BKN014 OVC024 22/21 A3004 RMK AO2 RAE06 P0001 T02170206
KDUJ 011703Z AUTO 00000KT 2 1/2SM -RA BR FEW006 BKN017 OVC022 22/21 A3004 RMK AO2 P0001 T02170206
KDUJ 011700Z AUTO 00000KT 1 1/2SM -RA BR FEW006 BKN010 OVC017 21/21 A3004 RMK AO2 P0001 T02110206
KDUJ 011653Z AUTO 25004KT 2SM -RA BR FEW010 BKN015 OVC021 21/21 A3004 RMK AO2 VIS 1/2V5 RAB25 SLP160 P0004 T02110206
KDUJ 011553Z AUTO 22004KT 9SM FEW007 FEW014 OVC024 22/21 A3004 RMK AO2 SLP160 T02170206
KDUJ 011453Z AUTO 18003KT 10SM BKN021 OVC031 22/19 A3004 RMK AO2 SLP162 T02220194 56004
KDUJ 011353Z AUTO 19003KT 10SM SCT010 BKN018 21/19 A3005 RMK AO2 SLP162 T02110194
KDUJ 011334Z AUTO 19004KT 10SM BKN010 BKN022 21/19 A3005 RMK AO2 T02110194
KDUJ 011253Z AUTO 19005KT 7SM OVC006 21/19 A3005 RMK AO2 CIG 005V010 SLP165 T02060194
KDUJ 011153Z AUTO 22003KT 4SM BR OVC006 20/19 A3006 RMK AO2 CIG 004V009 SLP167 70033 T02000194 10206 20200 52001
KDUJ 011107Z AUTO 21003KT 3SM BR OVC008 20/19 A3005 RMK AO2 T02000194
KDUJ 011053Z AUTO 21003KT 2 1/2SM BR OVC008 20/19 A3006 RMK AO2 SLP166 T02000194
KDUJ 011038Z AUTO 23005KT 4SM BR OVC006 20/19 A3006 RMK AO2 CIG 004V010 T02000194
KDUJ 011018Z AUTO 23004KT 2 1/2SM BR BKN005 OVC038 20/19 A3005 RMK AO2 CIG 003V009 T02000194
KDUJ 010953Z AUTO 23004KT 3SM BR BKN004 OVC036 20/20 A3005 RMK AO2 SLP164 T02000200
KDUJ 010853Z AUTO 24005KT 4SM BR OVC004 20/20 A3005 RMK AO2 SLP164 T02000200 53003
KDUJ 010838Z AUTO 25007KT 4SM BR OVC004 20/20 A3006 RMK AO2 T02000200
KDUJ 010753Z AUTO 24008KT 5SM BR BKN005 OVC011 21/20 A3004 RMK AO2 CIG 003V009 SLP161 T02060200
KDUJ 010653Z AUTO 25007KT 5SM BR OVC005 21/20 A3004 RMK AO2 CIG 003V010 SLP161 T02060200
KDUJ 010635Z AUTO 24008KT 6SM BR OVC005 21/20 A3004 RMK AO2 CIG 003V008 T02060200
KDUJ 010553Z AUTO 23005KT 6SM BR BKN004 OVC009 21/20 A3004 RMK AO2 RAE03 SLP162 P0000 60004 T02060200 10206 20200 56003
KDUJ 010514Z AUTO 23005KT 6SM BR BKN004 OVC010 21/20 A3005 RMK AO2 RAE03 P0000 T02060200
KDUJ 010502Z AUTO 23005KT 4SM -RA BR SCT004 BKN008 OVC018 21/20 A3005 RMK AO2 P0000 T02060200
KDUJ 010453Z AUTO 21005KT 2SM -RA BR SCT006 BKN012 OVC035 21/20 A3005 RMK AO2 RAB38 SLP163 P0004 T02060200 402280194
KDUJ 010443Z AUTO 22005KT 2 1/2SM -RA BR FEW006 BKN021 OVC042 21/20 A3005 RMK AO2 RAB38 P0002 T02060200
KDUJ 010419Z AUTO 22008KT 7SM SCT008 OVC044 21/20 A3005 RMK AO2 T02060200
KDUJ 010353Z AUTO 22008KT 10SM OVC008 21/20 A3005 RMK AO2 CIG 006V012 SLP163 T02060200
KDUJ 010336Z AUTO 22007KT 10SM BKN008 BKN046 OVC055 21/20 A3005 RMK AO2 T02060200
KDUJ 010326Z AUTO 22006KT 9SM SCT008 BKN046 BKN055 20/19 A3005 RMK AO2 T02000194
KDUJ 010253Z AUTO 22006KT 10SM SCT017 20/19 A3005 RMK AO2 SLP165 T02000194 58000
KDUJ 010214Z AUTO 21004KT 10SM FEW019 SCT023 OVC044 21/19 A3006 RMK AO2 T02060194
KDUJ 010153Z AUTO 22004KT 10SM SCT015 BKN022 OVC046 21/19 A3006 RMK AO2 SLP168 T02060194
KDUJ 010053Z AUTO 22004KT 10SM FEW018 SCT023 BKN050 21/19 A3006 RMK AO2 SLP169 T02060194
KDUJ 010015Z AUTO 21004KT 10SM FEW013 SCT020 SCT038 21/19 A3005 RMK AO2 T02110194
KDUJ 312353Z AUTO 20003KT 10SM SCT014 BKN022 21/20 A3005 RMK AO2 SLP165 60001 T02110200 10228 20211 51002
KDUJ 312321Z AUTO 22004KT 10SM SCT024 BKN035 22/20 A3005 RMK AO2 T02170200
KDUJ 312305Z AUTO 22004KT 10SM BKN024 22/20 A3005 RMK AO2 T02170200
KDUJ 312253Z AUTO 22004KT 10SM SCT022 BKN042 22/20 A3005 RMK AO2 SLP164 T02170200
KDUJ 312153Z AUTO 23009KT 10SM FEW015 SCT021 BKN040 22/19 A3005 RMK AO2 SLP164 T02220194